Edmonton International Airport
CYEG : rendu visible

Aérodrome :











RETROUVEZ-NOUS SUR...

 
LOGIN :

S'inscrire | Disclaimer

   EN    FR    IT 

 









Légende :    VFR   VFR Marginal   IFR   IFR Intensif   IFR Très Intensif
Visi : 
Plafond : 
>= 8 km
>= 3000ft
5 à 8 km
1000 à 3000 ft
1500m à 5 km
500 à 1000 ft
800 à 1500m
200 à 500 ft
< 800m
< 200 ft
Symboles :   Orages  Brouillard  Fortes neiges  Fortes précipitations  Vent > 20 kt






- Altitude de l'aérodrome : 2373 ft
- Code IATA : YEG


CYEG - Edmonton International

DERNIER METAR :
  • 301000Z 12011KT 20SM SCT180 BKN240 M04/M09 A2964 RMK AS3CI2 PRESFR SLP077

METARs EXPIRÉS :
  • 300900Z 13009KT 20SM SCT180 BKN240 M04/M09 A2968 RMK AS4CI3 SLP092
  • 300800Z 17003KT 20SM BKN180 OVC240 M04/M08 A2970 RMK AS5CI3 VIRGA PTCHS OVRHD SLP098

TAF TAF CYEG
Valide du 30 à 09h jusqu'au 01 à 06h UTC


300838Z 3009/0106 16006KT P6SM BKN180
FM301400 16010KT P6SM FEW100 BKN200
BECMG 3016/3018 19012G22KT
FM301900 19012G22KT P6SM SCT240
BECMG 3022/3024 29020G30KT
FM010000 29020G30KT P6SM BKN080 BKN200
FM010200 30025G35KT P6SM SCT080 SCT200 RMK NXT FCST BY 301200Z
FIR CZEG / Amérique du Nord



MET'MAP, la Météo Aéronautique d'un coup d'oeil ! - Copyright ORBIFLY Décembre 2007 - Disclaimer

ORBIFLY MET'MAP TEAM :

Programmation & Développement : Alexandra Zaïnal
Sur une idée originale de : Baudouin d'Aumeries
Assistance à la programmation : Marc-Olivier Méhu
Soutien technique & logistique : Manuel Goepfert

Contact : metmap@orbifly.com




SOURCES & CREDITS :

   NOAA       Earth
Advisory